Time;durP1;ratioP1;P1;durP2;ratioP2;P2;SDS_P1;SDS_P2;PMS_P1;PMS_P2;Temp;Humidity;BMP_temperature;BMP_pressure;BME280_temperature;BME280_humidity;BME280_pressure;Samples;Min_cycle;Max_cycle;Signal;HPM_P1;HPM_P2
2022/08/13 00:00:59;;;;;;;10.90;9.90;;;;;;;18.79;76.46;98044.63;105725;1281;25391;-85
2022/08/13 00:03:30;;;;;;;11.70;10.60;;;;;;;18.89;75.84;98044.99;105777;1281;22707;-84
2022/08/13 00:09:23;;;;;;;11.00;9.90;;;;;;;18.74;75.38;98036.39;105823;1281;22584;-85
2022/08/13 00:15:13;;;;;;;11.80;10.70;;;;;;;18.42;75.58;98032.35;105787;1281;24418;-86
2022/08/13 00:17:49;;;;;;;11.60;10.40;;;;;;;18.36;76.28;98034.23;105822;1281;22769;-84
2022/08/13 00:20:45;;;;;;;11.10;10.00;;;;;;;18.34;76.22;98032.06;105803;1281;25392;-83
2022/08/13 00:23:27;;;;;;;12.10;10.90;;;;;;;18.28;76.26;98034.16;105766;1281;22542;-87
2022/08/13 00:26:15;;;;;;;11.80;10.80;;;;;;;18.28;77.11;98026.98;105673;1281;22563;-87
2022/08/13 00:28:57;;;;;;;11.50;10.50;;;;;;;18.36;77.04;98025.88;105749;1281;22711;-87
2022/08/13 00:31:25;;;;;;;12.30;11.20;;;;;;;18.42;77.08;98025.52;105735;1281;25685;-87
2022/08/13 00:33:54;;;;;;;12.30;11.10;;;;;;;18.37;76.72;98021.09;105830;1281;22711;-87
2022/08/13 00:36:23;;;;;;;10.30;9.30;;;;;;;18.31;76.94;98017.73;105807;1281;25533;-87
2022/08/13 00:39:08;;;;;;;13.70;12.60;;;;;;;18.44;77.48;98014.55;105822;1281;22552;-86
2022/08/13 00:41:40;;;;;;;11.90;10.80;;;;;;;18.36;76.86;98016.30;105897;1281;22747;-88
2022/08/13 00:44:31;;;;;;;12.80;11.60;;;;;;;18.28;77.44;98008.51;105669;1281;25377;-88
2022/08/13 00:49:50;;;;;;;16.50;12.30;;;;;;;18.12;77.74;98009.15;105680;1281;25246;-86
2022/08/13 00:52:38;;;;;;;11.00;10.00;;;;;;;18.24;79.18;98011.77;105572;1281;25240;-86
2022/08/13 00:55:19;;;;;;;13.90;12.70;;;;;;;18.52;79.41;98006.39;105373;1281;22624;-87
2022/08/13 00:57:50;;;;;;;;;;;;;;;18.61;77.95;98008.33;105785;1281;25460;-86
2022/08/13 01:00:23;;;;;;;13.80;12.40;;;;;;;18.56;77.77;98007.48;105808;1281;24275;-85
2022/08/13 01:02:53;;;;;;;13.00;11.90;;;;;;;18.41;78.04;98005.52;105620;1281;24309;-84
2022/08/13 01:05:25;;;;;;;12.00;11.00;;;;;;;18.36;78.41;98010.63;105821;1281;24349;-85
2022/08/13 01:07:59;;;;;;;13.40;12.20;;;;;;;18.36;78.39;98002.11;105885;1281;22694;-86
2022/08/13 01:10:30;;;;;;;12.00;10.60;;;;;;;18.28;78.35;97996.29;105797;1281;22715;-86
2022/08/13 01:13:00;;;;;;;12.60;11.50;;;;;;;18.30;78.65;97990.80;105708;1281;22701;-85
2022/08/13 01:15:31;;;;;;;14.00;12.50;;;;;;;18.29;79.37;97984.87;105777;1281;22555;-85
2022/08/13 01:18:24;;;;;;;12.10;10.90;;;;;;;18.40;79.17;97982.51;105791;1281;26514;-85
2022/08/13 01:21:08;;;;;;;13.50;12.40;;;;;;;18.46;79.05;97985.39;105653;1281;23353;-86
2022/08/13 01:23:37;;;;;;;13.00;11.90;;;;;;;18.55;78.96;97977.92;105645;1281;22888;-85
2022/08/13 01:26:12;;;;;;;14.70;13.40;;;;;;;18.65;79.10;97974.43;105787;1281;24547;-85
2022/08/13 01:28:50;;;;;;;13.80;12.60;;;;;;;18.58;78.37;97970.37;105822;1281;24229;-86
2022/08/13 01:31:20;;;;;;;15.10;13.60;;;;;;;18.44;78.91;97967.02;105860;1281;26396;-84
2022/08/13 01:33:57;;;;;;;14.40;13.00;;;;;;;18.36;79.41;97961.29;105773;1281;24096;-85
2022/08/13 01:36:32;;;;;;;13.90;12.70;;;;;;;18.38;79.55;97955.12;105731;1281;25370;-86
2022/08/13 01:39:21;;;;;;;14.90;13.60;;;;;;;18.39;79.49;97956.69;105730;1281;25322;-85
2022/08/13 01:41:53;;;;;;;13.40;12.30;;;;;;;18.44;79.54;97958.77;105565;1282;22724;-84
2022/08/13 01:44:25;;;;;;;13.10;11.90;;;;;;;18.53;80.21;97963.69;105771;1281;24295;-85
2022/08/13 01:53:09;;;;;;;16.40;15.00;;;;;;;18.75;80.00;97965.52;105825;1281;24479;-86
2022/08/13 01:55:39;;;;;;;14.90;13.70;;;;;;;18.78;79.54;97964.12;105566;1281;25475;-86
2022/08/13 01:58:29;;;;;;;14.40;13.00;;;;;;;18.80;79.20;97965.20;105972;1281;22737;-85
2022/08/13 02:01:03;;;;;;;14.50;13.30;;;;;;;18.82;79.49;97961.58;106114;1281;22719;-86
2022/08/13 02:03:38;;;;;;;12.10;11.10;;;;;;;18.93;79.57;97961.94;105862;1281;22625;-87
2022/08/13 02:06:11;;;;;;;14.70;13.20;;;;;;;18.99;79.46;97955.07;105869;1280;24417;-87
2022/08/13 02:08:58;;;;;;;13.50;12.40;;;;;;;19.11;79.20;97958.45;105638;1281;25471;-85
2022/08/13 02:11:28;;;;;;;13.90;12.70;;;;;;;19.16;78.93;97960.85;105856;1281;22732;-86
2022/08/13 02:14:00;;;;;;;12.10;10.90;;;;;;;19.17;78.74;97964.15;105671;1281;22775;-85
2022/08/13 02:16:31;;;;;;;13.10;11.90;;;;;;;19.24;79.06;97961.73;105744;1281;24426;-86
2022/08/13 02:19:04;;;;;;;12.60;11.40;;;;;;;19.24;79.12;97959.88;105918;1281;24387;-82
2022/08/13 02:21:52;;;;;;;15.00;13.60;;;;;;;19.42;79.54;97961.05;105832;1281;25415;-82
2022/08/13 02:24:20;;;;;;;13.00;11.90;;;;;;;19.53;79.27;97949.91;105822;1281;24292;-82
2022/08/13 02:26:48;;;;;;;12.30;11.30;;;;;;;19.61;78.45;97951.27;105777;1281;22658;-81
2022/08/13 02:29:23;;;;;;;13.30;12.10;;;;;;;19.64;78.69;97948.30;105819;1281;22560;-82
2022/08/13 02:31:53;;;;;;;13.30;11.90;;;;;;;19.75;78.52;97949.73;105908;1281;24269;-81
2022/08/13 02:34:43;;;;;;;13.30;12.10;;;;;;;19.86;78.27;97952.13;105797;1281;22704;-82
2022/08/13 02:37:13;;;;;;;15.00;13.70;;;;;;;19.94;78.13;97953.95;105787;1281;22703;-82
2022/08/13 02:40:04;;;;;;;13.30;12.10;;;;;;;19.94;77.66;97960.11;105843;1281;22889;-82
2022/08/13 02:42:35;;;;;;;12.50;10.60;;;;;;;19.98;77.80;97962.06;105861;1281;24486;-83
2022/08/13 02:45:05;;;;;;;13.50;12.30;;;;;;;20.06;77.77;97966.63;105881;1281;22613;-84
2022/08/13 02:47:39;;;;;;;12.40;11.30;;;;;;;20.15;77.43;97965.41;105794;1281;23944;-81
2022/08/13 02:50:11;;;;;;;13.70;12.40;;;;;;;20.19;77.34;97964.63;105760;1281;22563;-82
2022/08/13 02:52:41;;;;;;;11.40;10.40;;;;;;;20.15;77.05;97963.77;105747;1281;22555;-81
2022/08/13 02:55:29;;;;;;;13.50;12.40;;;;;;;20.14;77.41;97964.38;105854;1281;26669;-82
2022/08/13 02:58:03;;;;;;;13.50;12.20;;;;;;;20.16;77.02;97961.52;105655;1282;24429;-80
2022/08/13 03:00:32;;;;;;;13.20;12.00;;;;;;;20.13;76.93;97959.11;105794;1281;22553;-82
2022/08/13 03:03:04;;;;;;;14.60;13.10;;;;;;;20.15;77.10;97952.44;105766;1281;24286;-81
2022/08/13 03:05:38;;;;;;;11.80;10.60;;;;;;;20.13;76.93;97956.08;105810;1281;25297;-82
2022/08/13 03:08:28;;;;;;;12.70;11.60;;;;;;;20.10;76.99;97954.91;105859;1281;22571;-81
2022/08/13 03:11:07;;;;;;;16.20;14.70;;;;;;;20.07;77.16;97952.58;105801;1281;22708;-80
2022/08/13 03:13:38;;;;;;;17.10;15.50;;;;;;;20.11;77.14;97950.55;105853;1281;23154;-81
2022/08/13 03:16:16;;;;;;;15.80;14.40;;;;;;;20.11;76.85;97947.42;105804;1281;23990;-82
2022/08/13 03:18:47;;;;;;;17.90;16.40;;;;;;;20.08;76.48;97946.10;105876;1281;25424;-81
2022/08/13 03:21:29;;;;;;;19.20;17.40;;;;;;;19.90;76.82;97946.69;105850;1281;22655;-83
2022/08/13 03:24:15;;;;;;;16.40;14.80;;;;;;;19.73;77.08;97944.23;105908;1281;25392;-82
2022/08/13 03:26:57;;;;;;;19.90;18.00;;;;;;;19.68;77.44;97939.11;105875;1281;23443;-82
2022/08/13 03:29:26;;;;;;;19.70;17.90;;;;;;;19.70;77.57;97936.80;105800;1281;24229;-82
2022/08/13 03:32:14;;;;;;;18.90;17.10;;;;;;;19.77;77.84;97936.02;105784;1281;23235;-82
2022/08/13 03:34:44;;;;;;;20.30;18.60;;;;;;;19.86;77.71;97933.48;105832;1281;25430;-82
2022/08/13 03:37:12;;;;;;;21.00;19.20;;;;;;;19.86;77.40;97934.25;105652;1282;22613;-81
2022/08/13 03:39:41;;;;;;;17.80;16.20;;;;;;;19.73;77.40;97936.32;105837;1281;27754;-82
2022/08/13 03:42:10;;;;;;;20.50;18.60;;;;;;;19.70;77.93;97932.98;105845;1281;24311;-81
2022/08/13 03:44:40;;;;;;;20.40;18.40;;;;;;;19.71;77.86;97929.33;105825;1281;23766;-81
2022/08/13 03:47:08;;;;;;;20.60;18.40;;;;;;;19.68;78.05;97930.68;105775;1281;24252;-83
2022/08/13 03:50:01;;;;;;;21.30;19.40;;;;;;;19.70;78.17;97934.69;105660;1281;22623;-84
2022/08/13 03:52:30;;;;;;;20.70;18.90;;;;;;;19.72;78.19;97936.15;105710;1281;22660;-84
2022/08/13 03:55:13;;;;;;;22.80;20.60;;;;;;;19.67;78.05;97934.31;105765;1281;22560;-83
2022/08/13 03:57:44;;;;;;;20.50;18.50;;;;;;;19.58;78.25;97932.21;105663;1281;25339;-82
2022/08/13 04:00:35;;;;;;;19.30;17.60;;;;;;;19.49;78.59;97930.95;105706;1281;23010;-82
2022/08/13 04:03:14;;;;;;;23.90;21.80;;;;;;;19.52;78.71;97932.50;105720;1281;25607;-82
2022/08/13 04:05:43;;;;;;;23.20;20.80;;;;;;;19.47;78.47;97934.96;105724;1281;22766;-84
2022/08/13 04:08:21;;;;;;;21.30;19.10;;;;;;;19.32;78.71;97936.16;105662;1281;25506;-83
2022/08/13 04:10:49;;;;;;;19.70;17.90;;;;;;;19.23;79.03;97937.53;105704;1281;25208;-83
2022/08/13 04:13:21;;;;;;;20.20;18.30;;;;;;;19.24;79.09;97937.08;105671;1281;22639;-82
2022/08/13 04:16:13;;;;;;;18.90;17.10;;;;;;;19.24;79.35;97937.54;105743;1281;22852;-82
2022/08/13 04:18:43;;;;;;;18.70;16.80;;;;;;;19.33;79.77;97938.62;105751;1281;22702;-82
2022/08/13 04:21:15;;;;;;;18.10;16.20;;;;;;;19.49;80.01;97938.67;105693;1281;22703;-83
2022/08/13 04:23:50;;;;;;;18.60;16.90;;;;;;;19.60;79.17;97941.73;105716;1281;25345;-83
2022/08/13 04:26:25;;;;;;;15.80;14.30;;;;;;;19.48;78.94;97938.58;105712;1281;24203;-83
2022/08/13 04:29:05;;;;;;;16.40;14.80;;;;;;;19.46;78.94;97936.04;105731;1281;22537;-82
2022/08/13 04:31:34;;;;;;;15.70;14.00;;;;;;;19.45;78.93;97934.60;105781;1281;25413;-82
2022/08/13 04:34:20;;;;;;;15.80;14.30;;;;;;;19.34;79.21;97938.71;105523;1281;24286;-81
2022/08/13 04:37:10;;;;;;;17.10;15.20;;;;;;;19.22;79.59;97942.20;105718;1281;22623;-81
2022/08/13 04:39:51;;;;;;;16.50;14.80;;;;;;;19.11;79.65;97940.92;105502;1281;25358;-83
2022/08/13 04:42:44;;;;;;;16.50;14.80;;;;;;;19.02;80.35;97942.33;105706;1281;25453;-84
2022/08/13 04:45:18;;;;;;;15.80;12.80;;;;;;;18.91;80.45;97940.82;105487;1281;24099;-81
2022/08/13 04:47:58;;;;;;;16.20;14.60;;;;;;;18.96;81.26;97940.17;105561;1281;22544;-81
2022/08/13 04:50:31;;;;;;;15.40;13.90;;;;;;;19.08;81.10;97938.34;105564;1281;25363;-80
2022/08/13 04:53:02;;;;;;;16.60;15.00;;;;;;;19.08;80.74;97935.52;105601;1281;25414;-82
2022/08/13 04:55:34;;;;;;;15.00;13.50;;;;;;;19.07;80.89;97937.39;105591;1282;22693;-83
2022/08/13 04:58:23;;;;;;;14.50;13.00;;;;;;;19.09;81.35;97937.58;105599;1281;25434;-83
2022/08/13 05:00:52;;;;;;;16.50;14.70;;;;;;;19.12;81.42;97936.09;105589;1281;25504;-83
2022/08/13 05:03:22;;;;;;;16.80;15.20;;;;;;;19.15;81.15;97938.88;105618;1281;22632;-83
2022/08/13 05:05:52;;;;;;;17.30;15.60;;;;;;;19.09;81.41;97937.59;105562;1282;24280;-83
2022/08/13 05:08:20;;;;;;;19.80;17.80;;;;;;;18.99;82.09;97934.69;105510;1282;22565;-82
2022/08/13 05:10:51;;;;;;;19.50;17.60;;;;;;;18.83;82.74;97936.26;105605;1281;23048;-82
2022/08/13 05:13:27;;;;;;;16.80;15.20;;;;;;;18.70;82.85;97933.64;105440;1283;25246;-84
2022/08/13 05:16:09;;;;;;;;;;;;;;;18.82;83.23;97931.46;105620;1281;25356;-85
2022/08/13 05:18:45;;;;;;;18.90;16.90;;;;;;;18.97;82.95;97937.91;105697;1281;25416;-84
2022/08/13 05:21:14;;;;;;;19.70;17.70;;;;;;;19.05;82.98;97940.08;105697;1281;24536;-85
2022/08/13 05:23:53;;;;;;;19.50;17.40;;;;;;;19.03;82.79;97939.48;105607;1281;25427;-85
2022/08/13 05:26:41;;;;;;;20.00;18.10;;;;;;;19.05;83.12;97933.05;105610;1281;22554;-84
2022/08/13 05:29:28;;;;;;;18.50;16.60;;;;;;;19.02;82.50;97932.02;105580;1281;22582;-84
2022/08/13 05:31:58;;;;;;;17.60;15.90;;;;;;;18.99;82.82;97929.48;105531;1282;22716;-84
2022/08/13 05:34:28;;;;;;;15.90;14.20;;;;;;;19.06;83.55;97929.17;105554;1281;22587;-84
2022/08/13 05:36:58;;;;;;;14.00;12.60;;;;;;;19.07;82.95;97929.58;105631;1281;22677;-84
2022/08/13 05:39:47;;;;;;;14.20;12.80;;;;;;;19.19;84.27;97930.70;105609;1281;25247;-85
2022/08/13 05:42:21;;;;;;;18.10;16.40;;;;;;;19.45;84.04;97929.35;105632;1281;25344;-84
2022/08/13 05:44:54;;;;;;;18.30;16.50;;;;;;;19.64;83.57;97934.87;105541;1282;24257;-87
2022/08/13 05:47:22;;;;;;;15.80;14.20;;;;;;;19.80;83.18;97928.66;105714;1281;22573;-84
2022/08/13 05:49:53;;;;;;;16.30;14.70;;;;;;;19.90;82.81;97927.77;105782;1281;22852;-82
2022/08/13 05:52:30;;;;;;;14.10;12.80;;;;;;;19.73;82.27;97929.14;105763;1281;24220;-81
2022/08/13 05:55:12;;;;;;;13.20;12.00;;;;;;;19.68;82.70;97927.86;105588;1281;22560;-80
2022/08/13 05:58:00;;;;;;;15.00;13.60;;;;;;;19.62;83.01;97927.71;105643;1281;24398;-80
2022/08/13 06:03:38;;;;;;;15.00;13.60;;;;;;;19.44;83.23;97921.77;105842;1281;24508;-79
2022/08/13 06:06:28;;;;;;;14.20;12.90;;;;;;;19.36;82.82;97919.02;105683;1281;25472;-80
2022/08/13 06:09:05;;;;;;;15.00;13.60;;;;;;;19.36;83.36;97922.22;105542;1282;22549;-80
2022/08/13 06:11:40;;;;;;;14.70;13.30;;;;;;;19.37;83.54;97921.91;105630;1281;24298;-80
2022/08/13 06:14:34;;;;;;;14.80;13.40;;;;;;;19.28;83.40;97923.91;105647;1281;22667;-81
2022/08/13 06:17:06;;;;;;;13.70;12.30;;;;;;;19.26;83.71;97922.45;105627;1281;25213;-83
2022/08/13 06:19:43;;;;;;;16.20;14.50;;;;;;;19.19;83.53;97921.91;105729;1281;24250;-82
2022/08/13 06:22:20;;;;;;;14.40;13.00;;;;;;;19.20;84.11;97923.24;105655;1281;24233;-80
2022/08/13 06:24:51;;;;;;;14.70;13.30;;;;;;;19.34;83.91;97919.91;105619;1281;22687;-81
2022/08/13 06:27:24;;;;;;;14.80;13.40;;;;;;;19.35;83.73;97920.95;105603;1281;22579;-81
2022/08/13 06:30:17;;;;;;;15.50;13.90;;;;;;;19.27;83.78;97923.73;105624;1281;24289;-82
2022/08/13 06:33:03;;;;;;;16.10;14.60;;;;;;;19.24;83.95;97920.69;105407;1281;23948;-81
2022/08/13 06:35:55;;;;;;;15.60;14.10;;;;;;;19.20;84.36;97916.06;105610;1281;22678;-82
2022/08/13 06:38:28;;;;;;;15.50;14.00;;;;;;;19.20;84.25;97914.82;105575;1281;22557;-82
2022/08/13 06:41:04;;;;;;;13.80;12.50;;;;;;;19.19;84.64;97916.66;105605;1281;22685;-81
2022/08/13 06:43:36;;;;;;;16.00;14.40;;;;;;;19.33;84.99;97914.90;105637;1281;22554;-81
2022/08/13 06:46:24;;;;;;;13.00;11.70;;;;;;;19.50;84.61;97919.30;105582;1281;22650;-81
2022/08/13 06:48:59;;;;;;;15.00;12.80;;;;;;;19.66;84.65;97916.73;105543;1281;24266;-81
2022/08/13 06:51:32;;;;;;;13.90;12.50;;;;;;;19.74;83.86;97915.19;105550;1281;22722;-82
2022/08/13 06:54:08;;;;;;;15.50;14.10;;;;;;;19.75;84.46;97912.71;105532;1281;24409;-82
2022/08/13 06:56:57;;;;;;;13.70;12.30;;;;;;;19.79;83.66;97912.54;105573;1281;22718;-80
2022/08/13 06:59:41;;;;;;;13.50;12.10;;;;;;;19.73;83.41;97911.73;105541;1281;25490;-80
2022/08/13 07:02:34;;;;;;;13.60;12.40;;;;;;;19.79;84.05;97917.30;105555;1281;22797;-80
2022/08/13 07:05:04;;;;;;;13.30;12.00;;;;;;;19.95;84.15;97912.95;105560;1281;24419;-82
2022/08/13 07:07:43;;;;;;;11.50;10.40;;;;;;;19.94;83.82;97913.57;105577;1281;22702;-80
2022/08/13 07:10:15;;;;;;;12.90;11.80;;;;;;;20.04;84.31;97911.17;105641;1281;22620;-81
2022/08/13 07:12:43;;;;;;;11.90;10.60;;;;;;;20.15;83.94;97907.58;105592;1281;25241;-80
2022/08/13 07:15:16;;;;;;;13.50;12.20;;;;;;;20.23;83.78;97907.08;105544;1281;23558;-81
2022/08/13 07:18:08;;;;;;;11.70;10.50;;;;;;;20.30;83.56;97913.48;105593;1281;22572;-81
2022/08/13 07:20:41;;;;;;;13.30;11.70;;;;;;;20.36;83.28;97908.98;105550;1282;25358;-83
2022/08/13 07:23:11;;;;;;;11.30;10.30;;;;;;;20.23;82.35;97903.89;105560;1281;25272;-85
2022/08/13 07:26:00;;;;;;;13.00;11.90;;;;;;;20.22;83.38;97905.50;105567;1281;26501;-86
2022/08/13 07:28:30;;;;;;;12.30;11.30;;;;;;;20.22;82.65;97906.22;105602;1281;22696;-84
2022/08/13 07:31:30;;;;;;;12.70;11.60;;;;;;;20.12;82.65;97909.22;105675;1281;25077;-84
2022/08/13 07:34:18;;;;;;;12.70;11.60;;;;;;;19.96;82.66;97914.14;105617;1281;22566;-84
2022/08/13 07:36:54;;;;;;;12.20;11.10;;;;;;;19.89;82.92;97911.42;105595;1281;25808;-84
2022/08/13 07:39:27;;;;;;;11.70;10.60;;;;;;;19.83;83.19;97915.99;105613;1281;22698;-83
2022/08/13 07:41:56;;;;;;;9.20;8.40;;;;;;;19.79;83.36;97914.59;105519;1281;23396;-85
2022/08/13 07:44:31;;;;;;;10.90;9.90;;;;;;;19.85;83.68;97916.10;105443;1281;25349;-86
2022/08/13 07:47:22;;;;;;;10.90;9.90;;;;;;;19.89;83.68;97919.17;105625;1281;22543;-86
2022/08/13 07:49:58;;;;;;;11.00;10.10;;;;;;;19.86;83.50;97915.35;105521;1281;25319;-87
2022/08/13 07:52:29;;;;;;;9.00;8.20;;;;;;;19.75;83.86;97917.39;105649;1281;22579;-79
2022/08/13 07:55:00;;;;;;;8.10;7.30;;;;;;;19.74;84.12;97920.88;105552;1281;22734;-79
2022/08/13 07:57:30;;;;;;;8.60;7.90;;;;;;;19.78;84.18;97918.70;105605;1281;25517;-80
2022/08/13 08:00:21;;;;;;;8.10;7.40;;;;;;;19.86;84.71;97918.86;105547;1281;22682;-80
2022/08/13 08:02:56;;;;;;;8.20;7.50;;;;;;;20.05;84.80;97919.88;105609;1281;24337;-81
2022/08/13 08:05:25;;;;;;;8.60;7.80;;;;;;;20.16;84.28;97920.64;105653;1281;23489;-80
2022/08/13 08:08:05;;;;;;;8.70;7.80;;;;;;;20.25;84.18;97918.94;105566;1281;22565;-81
2022/08/13 08:10:41;;;;;;;7.60;6.90;;;;;;;20.33;83.68;97917.44;105553;1281;22617;-80
2022/08/13 08:13:10;;;;;;;8.40;7.60;;;;;;;20.39;83.98;97916.39;105666;1281;22705;-80
2022/08/13 08:15:42;;;;;;;8.00;7.20;;;;;;;20.49;83.74;97913.83;105932;1281;25369;-80
2022/08/13 08:18:33;;;;;;;7.60;6.90;;;;;;;20.59;83.64;97912.48;105878;1281;22691;-80
2022/08/13 08:21:23;;;;;;;7.70;6.70;;;;;;;20.71;83.59;97905.64;105885;1281;24217;-81
2022/08/13 08:24:13;;;;;;;7.90;7.10;;;;;;;20.74;83.29;97899.05;105550;1281;25298;-81
2022/08/13 08:26:52;;;;;;;6.80;6.00;;;;;;;20.74;83.22;97899.09;105588;1281;25390;-81
2022/08/13 08:29:21;;;;;;;6.90;6.10;;;;;;;20.75;83.26;97901.95;105565;1281;22747;-81
2022/08/13 08:31:51;;;;;;;10.10;6.70;;;;;;;20.75;83.08;97899.05;105561;1281;25202;-82
2022/08/13 08:34:29;;;;;;;6.80;5.90;;;;;;;20.72;83.00;97902.14;105582;1281;25250;-81
2022/08/13 08:36:58;;;;;;;7.40;6.10;;;;;;;20.69;83.09;97898.48;105930;1280;24263;-81
2022/08/13 08:42:36;;;;;;;9.60;6.10;;;;;;;20.64;83.03;97894.34;105912;1280;22715;-83
2022/08/13 08:45:11;;;;;;;6.10;5.10;;;;;;;20.71;83.31;97891.23;105608;1281;22697;-81
2022/08/13 08:47:42;;;;;;;8.00;5.60;;;;;;;20.83;83.31;97888.08;105564;1281;22731;-81
2022/08/13 08:50:16;;;;;;;5.70;5.10;;;;;;;20.94;83.00;97890.20;105862;1281;22681;-82
2022/08/13 08:56:05;;;;;;;7.10;5.50;;;;;;;20.87;82.79;97885.86;105800;1281;25529;-81
2022/08/13 08:58:38;;;;;;;6.90;5.00;;;;;;;20.78;82.67;97884.40;105556;1281;24291;-80
2022/08/13 09:01:10;;;;;;;6.50;5.30;;;;;;;20.77;82.93;97879.23;105548;1283;22705;-79
2022/08/13 09:03:42;;;;;;;5.90;5.30;;;;;;;20.78;83.06;97881.66;105718;1281;23324;-81
2022/08/13 09:06:26;;;;;;;;;;;;;;;20.83;83.24;97882.69;105597;1283;23181;-80
2022/08/13 09:09:16;;;;;;;5.70;5.20;;;;;;;20.88;82.89;97878.14;105591;1281;22805;-82
2022/08/13 09:11:55;;;;;;;6.70;5.50;;;;;;;20.89;82.90;97879.48;105790;1281;22553;-82
2022/08/13 09:14:26;;;;;;;6.10;5.60;;;;;;;20.93;82.97;97877.83;105580;1281;24260;-84
2022/08/13 09:16:57;;;;;;;6.80;6.10;;;;;;;20.94;82.92;97878.32;105617;1281;25555;-82
2022/08/13 09:19:27;;;;;;;6.70;6.10;;;;;;;20.90;82.67;97876.77;105656;1281;22541;-83
2022/08/13 09:22:21;;;;;;;7.90;7.10;;;;;;;20.90;82.88;97877.70;105564;1281;23948;-76
2022/08/13 09:24:56;;;;;;;7.30;6.60;;;;;;;20.93;82.68;97872.34;105523;1281;24225;-76
2022/08/13 09:27:28;;;;;;;8.20;7.40;;;;;;;21.08;83.50;97870.55;105383;1282;25277;-78
2022/08/13 09:30:16;;;;;;;9.40;8.10;;;;;;;21.40;82.79;97862.08;105640;1281;22721;-79
2022/08/13 09:32:56;;;;;;;10.30;9.20;;;;;;;21.64;82.25;97857.94;105660;1281;22665;-79
2022/08/13 09:35:28;;;;;;;9.70;8.80;;;;;;;21.84;81.76;97855.83;105422;1281;25347;-76
2022/08/13 09:38:07;;;;;;;10.60;8.70;;;;;;;22.05;82.05;97850.81;105496;1281;23519;-81
2022/08/13 09:40:44;;;;;;;10.00;9.00;;;;;;;22.27;81.75;97848.95;105883;1281;22558;-79
2022/08/13 09:43:39;;;;;;;10.10;9.10;;;;;;;22.51;80.77;97846.73;105280;1281;22704;-79
2022/08/13 09:46:17;;;;;;;9.90;9.00;;;;;;;22.66;79.42;97847.10;105937;1281;24179;-81
2022/08/13 09:48:51;;;;;;;11.00;10.00;;;;;;;22.78;79.59;97848.38;105553;1281;22719;-79
2022/08/13 09:51:24;;;;;;;10.20;9.30;;;;;;;22.88;79.23;97847.52;104435;1281;1457122;-77
2022/08/13 09:54:14;;;;;;;11.40;9.80;;;;;;;22.92;77.94;97843.69;105551;1281;22730;-79
2022/08/13 09:56:47;;;;;;;10.00;9.00;;;;;;;22.93;77.74;97845.50;105536;1281;24564;-79
2022/08/13 09:59:20;;;;;;;11.90;9.80;;;;;;;23.03;78.28;97840.66;105578;1281;25370;-78
2022/08/13 10:02:12;;;;;;;10.70;9.70;;;;;;;23.12;77.43;97844.48;105527;1281;25539;-79
2022/08/13 10:04:44;;;;;;;10.20;9.20;;;;;;;23.21;77.80;97843.60;105897;1281;23249;-80
2022/08/13 10:07:14;;;;;;;9.80;8.90;;;;;;;23.25;77.04;97839.30;105870;1281;24347;-82
2022/08/13 10:09:51;;;;;;;9.20;8.30;;;;;;;23.24;76.04;97836.78;105616;1281;23549;-80
2022/08/13 10:12:41;;;;;;;9.30;8.40;;;;;;;23.12;75.53;97837.42;105492;1281;22619;-81
2022/08/13 10:15:14;;;;;;;8.60;7.50;;;;;;;22.97;75.00;97835.43;105488;1281;24256;-80
2022/08/13 10:17:56;;;;;;;8.20;7.20;;;;;;;22.89;75.15;97835.35;105901;1281;22536;-81
2022/08/13 10:20:36;;;;;;;8.40;7.50;;;;;;;22.89;74.59;97828.21;105876;1281;23399;-80
2022/08/13 10:23:08;;;;;;;8.10;6.50;;;;;;;22.98;74.03;97826.56;105649;1281;22570;-81
2022/08/13 10:25:37;;;;;;;8.80;6.60;;;;;;;23.10;74.27;97826.25;105619;1281;22624;-81
2022/08/13 10:28:28;;;;;;;7.60;6.80;;;;;;;23.30;73.99;97821.81;105541;1281;22626;-81
2022/08/13 10:31:07;;;;;;;8.40;6.80;;;;;;;23.54;73.65;97818.23;105614;1281;26635;-80
2022/08/13 10:33:58;;;;;;;8.40;6.80;;;;;;;23.78;72.91;97820.95;105607;1281;22705;-77
2022/08/13 10:36:30;;;;;;;8.20;7.10;;;;;;;23.93;72.19;97814.61;105610;1281;22626;-78
2022/08/13 10:39:05;;;;;;;7.50;6.70;;;;;;;24.02;71.58;97811.98;105485;1281;25526;-78
2022/08/13 10:41:42;;;;;;;11.30;7.60;;;;;;;24.05;71.48;97807.25;105548;1281;24250;-78
2022/08/13 10:44:27;;;;;;;8.20;7.30;;;;;;;24.04;71.34;97810.63;105621;1281;22545;-78
2022/08/13 10:47:02;;;;;;;8.70;7.70;;;;;;;23.93;70.88;97806.84;105575;1281;22582;-78
2022/08/13 10:49:31;;;;;;;8.90;8.10;;;;;;;23.73;70.14;97809.53;105391;1281;25457;-79
2022/08/13 10:52:02;;;;;;;8.80;7.90;;;;;;;23.52;70.39;97803.93;105621;1281;24288;-78
2022/08/13 10:54:33;;;;;;;9.20;8.30;;;;;;;23.37;70.59;97807.40;105758;1281;22544;-79
2022/08/13 10:57:05;;;;;;;8.90;8.00;;;;;;;23.28;70.22;97801.84;105627;1281;24217;-77
2022/08/13 10:59:45;;;;;;;11.00;8.60;;;;;;;23.17;70.36;97798.73;105794;1281;24259;-78
2022/08/13 11:02:13;;;;;;;;;;;;;;;23.16;70.61;97794.64;105972;1281;22785;-78
2022/08/13 11:04:47;;;;;;;9.60;8.60;;;;;;;23.21;70.62;97794.36;105784;1281;25397;-78
2022/08/13 11:07:20;;;;;;;9.00;8.10;;;;;;;23.28;70.14;97790.46;105455;1282;22584;-78
2022/08/13 11:09:50;;;;;;;9.00;8.10;;;;;;;23.39;70.15;97792.86;105358;1281;22522;-80
2022/08/13 11:12:19;;;;;;;12.30;9.10;;;;;;;23.50;70.09;97789.07;105591;1281;22572;-79
2022/08/13 11:14:49;;;;;;;12.60;9.90;;;;;;;23.51;69.83;97788.91;105937;1281;24434;-77
2022/08/13 11:17:18;;;;;;;10.00;9.10;;;;;;;23.49;69.66;97789.61;105599;1281;24296;-77
2022/08/13 11:20:13;;;;;;;10.30;9.40;;;;;;;23.42;69.41;97785.49;105456;1284;22778;-77
2022/08/13 11:22:56;;;;;;;11.80;9.50;;;;;;;23.36;69.67;97782.10;105887;1281;23420;-77
2022/08/13 11:25:26;;;;;;;15.80;10.80;;;;;;;23.39;69.60;97787.92;105575;1281;22573;-78
2022/08/13 11:28:15;;;;;;;10.80;9.50;;;;;;;23.40;68.78;97790.43;105891;1281;22506;-77
2022/08/13 11:30:51;;;;;;;16.00;10.40;;;;;;;23.21;68.80;97789.95;105532;1281;23527;-79
2022/08/13 11:33:21;;;;;;;10.80;9.70;;;;;;;23.07;69.20;97787.37;105809;1281;25250;-76
2022/08/13 11:36:09;;;;;;;10.50;9.40;;;;;;;23.03;69.23;97792.45;105902;1281;25637;-78
2022/08/13 11:38:40;;;;;;;10.30;9.20;;;;;;;22.99;69.37;97792.20;105560;1281;26619;-77
2022/08/13 11:41:08;;;;;;;10.80;9.10;;;;;;;22.96;69.74;97796.79;105422;1281;22604;-79
2022/08/13 11:43:48;;;;;;;10.60;9.40;;;;;;;23.00;69.83;97797.45;105757;1281;25304;-78
2022/08/13 11:46:26;;;;;;;10.40;9.30;;;;;;;23.00;69.85;97797.30;105699;1281;25250;-78
2022/08/13 11:48:54;;;;;;;10.80;9.70;;;;;;;22.99;69.86;97801.61;105667;1281;22727;-80
2022/08/13 11:51:38;;;;;;;21.80;10.60;;;;;;;23.00;69.78;97803.27;105222;1280;22614;-80
2022/08/13 11:54:22;;;;;;;9.90;9.00;;;;;;;22.96;69.61;97802.83;105279;1281;22550;-79
2022/08/13 11:57:04;;;;;;;10.40;9.40;;;;;;;22.88;69.71;97802.52;105282;1281;22560;-78
2022/08/13 11:59:42;;;;;;;10.10;9.10;;;;;;;22.84;70.06;97800.70;105296;1281;25258;-78
2022/08/13 12:02:17;;;;;;;11.70;9.20;;;;;;;22.88;70.30;97801.60;105259;1281;23070;-79
2022/08/13 12:04:56;;;;;;;10.70;9.60;;;;;;;22.92;70.32;97800.27;105596;1281;22528;-80
2022/08/13 12:07:26;;;;;;;11.20;9.40;;;;;;;22.97;70.55;97798.91;105632;1281;22583;-81
2022/08/13 12:09:55;;;;;;;11.50;10.20;;;;;;;23.01;70.31;97799.11;105628;1281;22714;-81
2022/08/13 12:12:26;;;;;;;10.30;9.30;;;;;;;23.04;70.36;97786.96;105649;1281;25357;-80
2022/08/13 12:14:58;;;;;;;13.60;10.30;;;;;;;23.13;70.51;97785.28;105278;1281;22536;-81
2022/08/13 12:17:30;;;;;;;13.40;9.70;;;;;;;23.24;70.59;97782.89;105369;1281;26629;-88
2022/08/13 12:20:23;;;;;;;11.20;9.80;;;;;;;23.39;70.74;97781.73;105672;1281;22715;-86
2022/08/13 12:22:59;;;;;;;10.70;9.70;;;;;;;23.61;70.62;97780.70;105922;1281;22711;-86